sensor_id;sensor_type;location;lat;lon;timestamp;noise_LAeq;noise_LA_min;noise_LA_max;noise_LA01;noise_LA95
72160;Laerm;60045;51.792;10.938;2023-11-19T00:01:31;38.53;36.44;46.80;;
72160;Laerm;60045;51.792;10.938;2023-11-19T00:03:57;40.79;37.81;53.82;;
72160;Laerm;60045;51.792;10.938;2023-11-19T00:06:23;41.99;39.02;48.30;;
72160;Laerm;60045;51.792;10.938;2023-11-19T00:08:50;55.73;38.86;73.28;;
72160;Laerm;60045;51.792;10.938;2023-11-19T00:11:16;50.75;39.84;71.55;;
72160;Laerm;60045;51.792;10.938;2023-11-19T00:13:42;42.73;40.48;49.08;;
72160;Laerm;60045;51.792;10.938;2023-11-19T00:16:08;52.87;41.93;69.19;;
72160;Laerm;60045;51.792;10.938;2023-11-19T00:18:35;44.29;42.34;46.68;;
72160;Laerm;60045;51.792;10.938;2023-11-19T00:21:01;45.83;43.57;54.23;;
72160;Laerm;60045;51.792;10.938;2023-11-19T00:23:27;57.18;44.64;72.14;;
72160;Laerm;60045;51.792;10.938;2023-11-19T00:25:53;47.43;44.46;56.96;;
72160;Laerm;60045;51.792;10.938;2023-11-19T00:28:19;46.21;44.21;53.76;;
72160;Laerm;60045;51.792;10.938;2023-11-19T00:30:44;45.83;42.15;52.89;;
72160;Laerm;60045;51.792;10.938;2023-11-19T00:33:10;44.97;42.13;57.86;;
72160;Laerm;60045;51.792;10.938;2023-11-19T00:35:36;44.01;41.31;53.84;;
72160;Laerm;60045;51.792;10.938;2023-11-19T00:38:02;42.60;39.12;53.39;;
72160;Laerm;60045;51.792;10.938;2023-11-19T00:40:29;41.46;38.74;54.27;;
72160;Laerm;60045;51.792;10.938;2023-11-19T00:42:54;41.37;39.23;48.35;;
72160;Laerm;60045;51.792;10.938;2023-11-19T00:45:20;41.16;38.01;51.00;;
72160;Laerm;60045;51.792;10.938;2023-11-19T00:47:46;40.43;36.72;54.35;;
72160;Laerm;60045;51.792;10.938;2023-11-19T00:50:12;38.00;35.21;49.16;;
72160;Laerm;60045;51.792;10.938;2023-11-19T00:52:38;37.49;33.99;48.23;;
72160;Laerm;60045;51.792;10.938;2023-11-19T00:55:04;37.89;34.33;49.11;;
72160;Laerm;60045;51.792;10.938;2023-11-19T00:57:30;52.86;35.16;68.75;;
72160;Laerm;60045;51.792;10.938;2023-11-19T00:59:57;41.41;36.67;52.79;;
72160;Laerm;60045;51.792;10.938;2023-11-19T01:02:24;42.52;37.04;57.89;;
72160;Laerm;60045;51.792;10.938;2023-11-19T01:04:49;45.09;38.76;56.56;;
72160;Laerm;60045;51.792;10.938;2023-11-19T01:07:15;43.19;37.81;61.58;;
72160;Laerm;60045;51.792;10.938;2023-11-19T01:09:41;39.21;36.73;53.86;;
72160;Laerm;60045;51.792;10.938;2023-11-19T01:12:07;38.66;35.65;49.12;;
72160;Laerm;60045;51.792;10.938;2023-11-19T01:14:35;56.55;34.62;74.18;;
72160;Laerm;60045;51.792;10.938;2023-11-19T01:17:01;35.85;34.06;46.24;;
72160;Laerm;60045;51.792;10.938;2023-11-19T01:19:26;53.42;33.64;69.66;;
72160;Laerm;60045;51.792;10.938;2023-11-19T01:21:53;36.21;31.35;49.43;;
72160;Laerm;60045;51.792;10.938;2023-11-19T01:24:20;33.58;31.59;49.94;;
72160;Laerm;60045;51.792;10.938;2023-11-19T01:26:45;33.85;32.25;43.68;;
72160;Laerm;60045;51.792;10.938;2023-11-19T01:29:14;35.47;32.55;48.95;;
72160;Laerm;60045;51.792;10.938;2023-11-19T01:31:43;38.70;33.73;52.96;;
72160;Laerm;60045;51.792;10.938;2023-11-19T01:34:11;35.37;33.11;47.84;;
72160;Laerm;60045;51.792;10.938;2023-11-19T01:36:37;36.21;32.90;49.71;;
72160;Laerm;60045;51.792;10.938;2023-11-19T01:39:02;38.56;35.49;49.42;;
72160;Laerm;60045;51.792;10.938;2023-11-19T01:41:33;41.42;37.65;52.15;;
72160;Laerm;60045;51.792;10.938;2023-11-19T01:43:59;50.81;42.52;69.77;;
72160;Laerm;60045;51.792;10.938;2023-11-19T01:46:24;54.02;44.04;67.94;;
72160;Laerm;60045;51.792;10.938;2023-11-19T01:48:51;53.30;45.43;69.92;;
72160;Laerm;60045;51.792;10.938;2023-11-19T01:51:19;55.96;45.86;73.01;;
72160;Laerm;60045;51.792;10.938;2023-11-19T01:53:45;50.32;47.42;63.74;;
72160;Laerm;60045;51.792;10.938;2023-11-19T01:56:11;49.33;46.79;58.42;;
72160;Laerm;60045;51.792;10.938;2023-11-19T01:58:38;50.87;47.15;60.23;;
72160;Laerm;60045;51.792;10.938;2023-11-19T02:01:05;50.97;47.50;61.86;;
72160;Laerm;60045;51.792;10.938;2023-11-19T02:03:32;50.62;47.05;59.93;;
72160;Laerm;60045;51.792;10.938;2023-11-19T02:05:59;51.41;48.17;59.84;;
72160;Laerm;60045;51.792;10.938;2023-11-19T02:08:25;49.60;47.13;55.41;;
72160;Laerm;60045;51.792;10.938;2023-11-19T02:10:51;51.00;46.92;64.71;;
72160;Laerm;60045;51.792;10.938;2023-11-19T02:13:17;49.61;47.01;57.44;;
72160;Laerm;60045;51.792;10.938;2023-11-19T02:15:43;49.61;47.32;55.16;;
72160;Laerm;60045;51.792;10.938;2023-11-19T02:18:22;54.86;47.29;69.75;;
72160;Laerm;60045;51.792;10.938;2023-11-19T02:20:50;49.33;46.85;60.72;;
72160;Laerm;60045;51.792;10.938;2023-11-19T02:23:17;50.48;47.10;69.62;;
72160;Laerm;60045;51.792;10.938;2023-11-19T02:25:45;48.92;46.30;56.02;;
72160;Laerm;60045;51.792;10.938;2023-11-19T02:28:14;49.32;46.73;57.06;;
72160;Laerm;60045;51.792;10.938;2023-11-19T02:30:41;51.00;46.30;67.73;;
72160;Laerm;60045;51.792;10.938;2023-11-19T02:33:07;48.95;46.19;54.79;;
72160;Laerm;60045;51.792;10.938;2023-11-19T02:35:33;50.47;46.05;63.63;;
72160;Laerm;60045;51.792;10.938;2023-11-19T02:37:59;50.97;47.69;60.82;;
72160;Laerm;60045;51.792;10.938;2023-11-19T02:40:26;54.83;45.75;73.97;;
72160;Laerm;60045;51.792;10.938;2023-11-19T02:42:52;48.20;44.39;59.69;;
72160;Laerm;60045;51.792;10.938;2023-11-19T02:45:18;46.78;44.29;55.44;;
72160;Laerm;60045;51.792;10.938;2023-11-19T02:47:44;50.85;46.57;62.59;;
72160;Laerm;60045;51.792;10.938;2023-11-19T02:50:10;50.67;45.74;58.84;;
72160;Laerm;60045;51.792;10.938;2023-11-19T02:52:42;48.91;46.33;58.30;;
72160;Laerm;60045;51.792;10.938;2023-11-19T02:55:08;49.92;46.78;59.96;;
72160;Laerm;60045;51.792;10.938;2023-11-19T02:57:35;51.37;47.54;62.08;;
72160;Laerm;60045;51.792;10.938;2023-11-19T03:00:01;52.06;47.93;64.22;;
72160;Laerm;60045;51.792;10.938;2023-11-19T03:02:37;52.01;47.93;64.37;;
72160;Laerm;60045;51.792;10.938;2023-11-19T03:05:09;56.00;51.04;69.22;;
72160;Laerm;60045;51.792;10.938;2023-11-19T03:07:35;53.80;50.34;63.21;;
72160;Laerm;60045;51.792;10.938;2023-11-19T03:10:02;59.78;49.37;76.12;;
72160;Laerm;60045;51.792;10.938;2023-11-19T03:12:30;51.03;47.16;63.19;;
72160;Laerm;60045;51.792;10.938;2023-11-19T03:14:56;54.10;47.43;62.36;;
72160;Laerm;60045;51.792;10.938;2023-11-19T03:17:22;59.03;52.70;74.73;;
72160;Laerm;60045;51.792;10.938;2023-11-19T03:19:49;51.67;47.60;58.36;;
72160;Laerm;60045;51.792;10.938;2023-11-19T03:22:15;48.71;46.03;53.81;;
72160;Laerm;60045;51.792;10.938;2023-11-19T03:24:40;48.52;44.37;60.02;;
72160;Laerm;60045;51.792;10.938;2023-11-19T03:27:06;47.39;44.24;59.47;;
72160;Laerm;60045;51.792;10.938;2023-11-19T03:29:32;46.60;43.53;54.81;;
72160;Laerm;60045;51.792;10.938;2023-11-19T03:31:58;45.93;42.68;53.15;;
72160;Laerm;60045;51.792;10.938;2023-11-19T03:34:23;47.65;43.44;66.02;;
72160;Laerm;60045;51.792;10.938;2023-11-19T03:36:49;46.36;43.18;57.41;;
72160;Laerm;60045;51.792;10.938;2023-11-19T03:39:15;61.65;43.29;86.28;;
72160;Laerm;60045;51.792;10.938;2023-11-19T03:41:41;57.48;42.89;73.09;;
72160;Laerm;60045;51.792;10.938;2023-11-19T03:44:06;47.59;42.40;62.55;;
72160;Laerm;60045;51.792;10.938;2023-11-19T03:46:32;46.02;41.67;59.65;;
72160;Laerm;60045;51.792;10.938;2023-11-19T03:48:58;46.06;43.23;55.83;;
72160;Laerm;60045;51.792;10.938;2023-11-19T03:51:24;45.51;42.02;57.47;;
72160;Laerm;60045;51.792;10.938;2023-11-19T03:53:50;44.57;41.84;54.54;;
72160;Laerm;60045;51.792;10.938;2023-11-19T03:56:15;44.88;42.31;52.85;;
72160;Laerm;60045;51.792;10.938;2023-11-19T03:58:41;55.67;42.20;68.63;;
72160;Laerm;60045;51.792;10.938;2023-11-19T04:01:11;43.54;40.58;53.68;;
72160;Laerm;60045;51.792;10.938;2023-11-19T04:03:38;55.26;40.92;72.01;;
72160;Laerm;60045;51.792;10.938;2023-11-19T04:06:04;42.88;40.33;53.07;;
72160;Laerm;60045;51.792;10.938;2023-11-19T04:08:30;43.92;40.35;58.54;;
72160;Laerm;60045;51.792;10.938;2023-11-19T04:10:56;54.51;40.56;71.52;;
72160;Laerm;60045;51.792;10.938;2023-11-19T04:13:21;43.52;40.30;49.71;;
72160;Laerm;60045;51.792;10.938;2023-11-19T04:15:49;42.71;39.95;52.43;;
72160;Laerm;60045;51.792;10.938;2023-11-19T04:18:15;46.23;42.74;60.10;;
72160;Laerm;60045;51.792;10.938;2023-11-19T04:20:41;60.35;43.45;76.01;;
72160;Laerm;60045;51.792;10.938;2023-11-19T04:23:10;46.88;43.95;51.93;;
72160;Laerm;60045;51.792;10.938;2023-11-19T04:25:36;47.96;44.39;61.12;;
72160;Laerm;60045;51.792;10.938;2023-11-19T04:28:02;46.98;44.05;56.65;;
72160;Laerm;60045;51.792;10.938;2023-11-19T04:30:28;57.34;42.52;70.60;;
72160;Laerm;60045;51.792;10.938;2023-11-19T04:32:54;44.81;41.10;54.23;;
72160;Laerm;60045;51.792;10.938;2023-11-19T04:35:19;54.20;43.10;69.62;;
72160;Laerm;60045;51.792;10.938;2023-11-19T04:37:46;44.50;41.07;53.77;;
72160;Laerm;60045;51.792;10.938;2023-11-19T04:40:12;41.68;38.50;52.36;;
72160;Laerm;60045;51.792;10.938;2023-11-19T04:42:38;40.15;37.06;50.83;;
72160;Laerm;60045;51.792;10.938;2023-11-19T04:45:07;46.45;40.13;60.78;;
72160;Laerm;60045;51.792;10.938;2023-11-19T04:47:35;55.04;45.12;70.42;;
72160;Laerm;60045;51.792;10.938;2023-11-19T04:50:01;52.28;44.61;66.05;;
72160;Laerm;60045;51.792;10.938;2023-11-19T04:52:27;46.31;42.06;59.37;;
72160;Laerm;60045;51.792;10.938;2023-11-19T04:54:53;45.04;41.13;57.48;;
72160;Laerm;60045;51.792;10.938;2023-11-19T04:57:19;43.63;41.05;52.45;;
72160;Laerm;60045;51.792;10.938;2023-11-19T04:59:45;42.43;40.08;54.03;;
72160;Laerm;60045;51.792;10.938;2023-11-19T05:02:10;41.11;39.01;49.50;;
72160;Laerm;60045;51.792;10.938;2023-11-19T05:04:36;43.11;40.53;54.21;;
72160;Laerm;60045;51.792;10.938;2023-11-19T05:07:03;55.93;40.71;69.79;;
72160;Laerm;60045;51.792;10.938;2023-11-19T05:09:30;57.72;37.71;74.69;;
72160;Laerm;60045;51.792;10.938;2023-11-19T05:11:55;55.86;36.95;70.43;;
72160;Laerm;60045;51.792;10.938;2023-11-19T05:14:21;51.50;37.84;66.07;;
72160;Laerm;60045;51.792;10.938;2023-11-19T05:16:47;40.79;37.34;51.65;;
72160;Laerm;60045;51.792;10.938;2023-11-19T05:19:13;43.05;40.71;53.21;;
72160;Laerm;60045;51.792;10.938;2023-11-19T05:21:41;42.49;38.70;50.50;;
72160;Laerm;60045;51.792;10.938;2023-11-19T05:24:07;42.46;39.48;54.41;;
72160;Laerm;60045;51.792;10.938;2023-11-19T05:26:34;42.14;39.08;50.89;;
72160;Laerm;60045;51.792;10.938;2023-11-19T05:28:59;52.76;39.07;68.71;;
72160;Laerm;60045;51.792;10.938;2023-11-19T05:31:25;44.21;40.91;50.95;;
72160;Laerm;60045;51.792;10.938;2023-11-19T05:33:51;40.96;38.56;50.60;;
72160;Laerm;60045;51.792;10.938;2023-11-19T05:36:17;41.49;37.15;55.22;;
72160;Laerm;60045;51.792;10.938;2023-11-19T05:38:43;41.32;37.91;49.95;;
72160;Laerm;60045;51.792;10.938;2023-11-19T05:41:09;40.81;37.28;51.17;;
72160;Laerm;60045;51.792;10.938;2023-11-19T05:43:35;53.83;38.06;70.63;;
72160;Laerm;60045;51.792;10.938;2023-11-19T05:46:02;46.69;37.34;65.87;;
72160;Laerm;60045;51.792;10.938;2023-11-19T05:48:28;50.22;37.39;65.90;;
72160;Laerm;60045;51.792;10.938;2023-11-19T05:50:54;42.02;37.54;55.26;;
72160;Laerm;60045;51.792;10.938;2023-11-19T05:53:20;41.47;35.75;52.21;;
72160;Laerm;60045;51.792;10.938;2023-11-19T05:55:45;44.08;38.18;55.62;;
72160;Laerm;60045;51.792;10.938;2023-11-19T05:58:19;45.32;40.24;59.05;;
72160;Laerm;60045;51.792;10.938;2023-11-19T06:00:46;45.46;42.39;58.68;;
72160;Laerm;60045;51.792;10.938;2023-11-19T06:03:12;44.01;40.89;50.43;;
72160;Laerm;60045;51.792;10.938;2023-11-19T06:05:38;45.46;40.93;61.14;;
72160;Laerm;60045;51.792;10.938;2023-11-19T06:08:04;57.30;40.15;72.03;;
72160;Laerm;60045;51.792;10.938;2023-11-19T06:10:32;57.80;38.72;74.12;;
72160;Laerm;60045;51.792;10.938;2023-11-19T06:13:00;43.36;39.67;57.51;;
72160;Laerm;60045;51.792;10.938;2023-11-19T06:15:30;44.70;39.38;62.92;;
72160;Laerm;60045;51.792;10.938;2023-11-19T06:17:55;51.33;39.10;65.31;;
72160;Laerm;60045;51.792;10.938;2023-11-19T06:20:23;42.42;39.10;56.30;;
72160;Laerm;60045;51.792;10.938;2023-11-19T06:22:50;52.01;36.62;66.78;;
72160;Laerm;60045;51.792;10.938;2023-11-19T06:25:15;52.97;37.64;70.09;;
72160;Laerm;60045;51.792;10.938;2023-11-19T06:27:42;57.09;40.47;72.54;;
72160;Laerm;60045;51.792;10.938;2023-11-19T06:30:07;44.99;40.26;57.12;;
72160;Laerm;60045;51.792;10.938;2023-11-19T06:32:34;53.42;37.80;67.53;;
72160;Laerm;60045;51.792;10.938;2023-11-19T06:34:59;43.50;37.25;55.97;;
72160;Laerm;60045;51.792;10.938;2023-11-19T06:37:25;61.39;40.06;74.05;;
72160;Laerm;60045;51.792;10.938;2023-11-19T06:39:52;53.01;37.37;69.31;;
72160;Laerm;60045;51.792;10.938;2023-11-19T06:42:18;55.81;36.28;73.06;;
72160;Laerm;60045;51.792;10.938;2023-11-19T06:44:43;48.81;35.59;67.20;;
72160;Laerm;60045;51.792;10.938;2023-11-19T06:47:09;54.32;35.80;69.19;;
72160;Laerm;60045;51.792;10.938;2023-11-19T06:49:35;54.37;33.78;72.61;;
72160;Laerm;60045;51.792;10.938;2023-11-19T06:52:01;55.79;33.47;73.27;;
72160;Laerm;60045;51.792;10.938;2023-11-19T06:54:26;56.17;33.66;71.69;;
72160;Laerm;60045;51.792;10.938;2023-11-19T06:56:52;54.45;33.40;69.99;;
72160;Laerm;60045;51.792;10.938;2023-11-19T06:59:18;42.47;31.62;55.59;;
72160;Laerm;60045;51.792;10.938;2023-11-19T07:01:44;34.55;31.14;48.27;;
72160;Laerm;60045;51.792;10.938;2023-11-19T07:04:12;39.30;32.18;62.12;;
72160;Laerm;60045;51.792;10.938;2023-11-19T07:06:38;37.13;31.17;48.77;;
72160;Laerm;60045;51.792;10.938;2023-11-19T07:09:08;55.85;31.78;74.36;;
72160;Laerm;60045;51.792;10.938;2023-11-19T07:11:40;37.49;31.25;46.74;;
72160;Laerm;60045;51.792;10.938;2023-11-19T07:14:06;56.83;34.83;70.86;;
72160;Laerm;60045;51.792;10.938;2023-11-19T07:16:33;59.96;34.07;75.87;;
72160;Laerm;60045;51.792;10.938;2023-11-19T07:18:59;44.13;34.45;58.13;;
72160;Laerm;60045;51.792;10.938;2023-11-19T07:21:25;40.13;33.04;49.82;;
72160;Laerm;60045;51.792;10.938;2023-11-19T07:23:53;36.00;31.35;49.63;;
72160;Laerm;60045;51.792;10.938;2023-11-19T07:26:19;62.36;31.45;78.36;;
72160;Laerm;60045;51.792;10.938;2023-11-19T07:28:45;51.61;32.46;69.20;;
72160;Laerm;60045;51.792;10.938;2023-11-19T07:31:11;56.36;34.86;73.75;;
72160;Laerm;60045;51.792;10.938;2023-11-19T07:33:39;57.48;33.10;72.39;;
72160;Laerm;60045;51.792;10.938;2023-11-19T07:36:04;54.31;33.99;71.53;;
72160;Laerm;60045;51.792;10.938;2023-11-19T07:38:30;53.39;32.03;69.26;;
72160;Laerm;60045;51.792;10.938;2023-11-19T07:40:56;36.68;31.28;51.51;;
72160;Laerm;60045;51.792;10.938;2023-11-19T07:43:22;40.35;32.33;62.01;;
72160;Laerm;60045;51.792;10.938;2023-11-19T07:45:48;37.24;30.29;51.77;;
72160;Laerm;60045;51.792;10.938;2023-11-19T07:48:14;53.54;31.49;70.16;;
72160;Laerm;60045;51.792;10.938;2023-11-19T07:50:40;64.67;31.94;82.44;;
72160;Laerm;60045;51.792;10.938;2023-11-19T07:53:06;55.05;32.30;71.86;;
72160;Laerm;60045;51.792;10.938;2023-11-19T07:55:33;54.04;32.89;69.71;;
72160;Laerm;60045;51.792;10.938;2023-11-19T07:57:59;53.78;33.49;70.98;;
72160;Laerm;60045;51.792;10.938;2023-11-19T08:00:26;54.02;34.55;69.39;;
72160;Laerm;60045;51.792;10.938;2023-11-19T08:02:51;36.35;31.34;50.02;;
72160;Laerm;60045;51.792;10.938;2023-11-19T08:05:17;62.53;35.91;76.63;;
72160;Laerm;60045;51.792;10.938;2023-11-19T08:07:43;40.36;33.09;58.04;;
72160;Laerm;60045;51.792;10.938;2023-11-19T08:10:09;58.47;32.09;72.92;;
72160;Laerm;60045;51.792;10.938;2023-11-19T08:12:36;56.47;29.66;70.65;;
72160;Laerm;60045;51.792;10.938;2023-11-19T08:15:02;52.95;29.00;70.82;;
72160;Laerm;60045;51.792;10.938;2023-11-19T08:17:29;51.66;28.58;67.04;;
72160;Laerm;60045;51.792;10.938;2023-11-19T08:19:55;55.90;30.82;72.78;;
72160;Laerm;60045;51.792;10.938;2023-11-19T08:22:21;59.70;29.65;75.61;;
72160;Laerm;60045;51.792;10.938;2023-11-19T08:24:47;56.53;29.72;70.76;;
72160;Laerm;60045;51.792;10.938;2023-11-19T08:27:13;56.51;32.08;71.12;;
72160;Laerm;60045;51.792;10.938;2023-11-19T08:29:39;43.08;28.84;65.94;;
72160;Laerm;60045;51.792;10.938;2023-11-19T08:32:05;59.38;29.20;78.88;;
72160;Laerm;60045;51.792;10.938;2023-11-19T08:34:31;52.89;30.58;67.47;;
72160;Laerm;60045;51.792;10.938;2023-11-19T08:36:57;61.52;32.86;74.55;;
72160;Laerm;60045;51.792;10.938;2023-11-19T08:39:23;59.66;33.74;74.74;;
72160;Laerm;60045;51.792;10.938;2023-11-19T08:41:49;60.78;33.56;72.61;;
72160;Laerm;60045;51.792;10.938;2023-11-19T08:44:15;63.24;37.98;77.34;;
72160;Laerm;60045;51.792;10.938;2023-11-19T08:46:48;57.59;31.71;70.22;;
72160;Laerm;60045;51.792;10.938;2023-11-19T08:49:13;59.47;28.76;76.06;;
72160;Laerm;60045;51.792;10.938;2023-11-19T08:51:39;40.78;31.08;59.99;;
72160;Laerm;60045;51.792;10.938;2023-11-19T08:54:05;56.85;30.76;73.92;;
72160;Laerm;60045;51.792;10.938;2023-11-19T08:56:31;58.66;31.04;72.57;;
72160;Laerm;60045;51.792;10.938;2023-11-19T08:58:59;57.37;33.05;70.45;;
72160;Laerm;60045;51.792;10.938;2023-11-19T09:01:25;52.65;32.90;68.77;;
72160;Laerm;60045;51.792;10.938;2023-11-19T09:03:51;56.85;35.93;70.51;;
72160;Laerm;60045;51.792;10.938;2023-11-19T09:06:17;62.01;39.39;75.27;;
72160;Laerm;60045;51.792;10.938;2023-11-19T09:08:42;60.17;42.15;74.16;;
72160;Laerm;60045;51.792;10.938;2023-11-19T09:11:08;57.64;36.89;71.84;;
72160;Laerm;60045;51.792;10.938;2023-11-19T09:13:35;60.54;37.42;75.81;;
72160;Laerm;60045;51.792;10.938;2023-11-19T09:16:00;61.79;35.34;75.46;;
72160;Laerm;60045;51.792;10.938;2023-11-19T09:18:31;57.53;33.31;70.50;;
72160;Laerm;60045;51.792;10.938;2023-11-19T09:20:57;55.68;33.43;71.69;;
72160;Laerm;60045;51.792;10.938;2023-11-19T09:23:23;62.73;37.50;74.81;;
72160;Laerm;60045;51.792;10.938;2023-11-19T09:25:50;56.86;37.19;71.33;;
72160;Laerm;60045;51.792;10.938;2023-11-19T09:28:16;59.08;33.81;72.58;;
72160;Laerm;60045;51.792;10.938;2023-11-19T09:30:42;59.11;34.04;70.88;;
72160;Laerm;60045;51.792;10.938;2023-11-19T09:33:08;59.18;37.94;74.20;;
72160;Laerm;60045;51.792;10.938;2023-11-19T09:35:34;61.11;35.24;73.24;;
72160;Laerm;60045;51.792;10.938;2023-11-19T09:38:01;59.82;37.27;73.43;;
72160;Laerm;60045;51.792;10.938;2023-11-19T09:40:27;57.66;39.34;70.57;;
72160;Laerm;60045;51.792;10.938;2023-11-19T09:42:53;60.08;36.75;72.96;;
72160;Laerm;60045;51.792;10.938;2023-11-19T09:45:20;58.66;31.54;73.36;;
72160;Laerm;60045;51.792;10.938;2023-11-19T09:47:46;58.78;32.33;72.99;;
72160;Laerm;60045;51.792;10.938;2023-11-19T09:50:14;62.61;34.52;78.83;;
72160;Laerm;60045;51.792;10.938;2023-11-19T09:52:41;55.66;32.89;71.07;;
72160;Laerm;60045;51.792;10.938;2023-11-19T09:55:07;62.89;37.28;79.30;;
72160;Laerm;60045;51.792;10.938;2023-11-19T09:57:33;52.22;35.36;69.83;;
72160;Laerm;60045;51.792;10.938;2023-11-19T10:00:00;56.24;35.98;71.88;;
72160;Laerm;60045;51.792;10.938;2023-11-19T10:02:26;63.12;36.88;80.34;;
72160;Laerm;60045;51.792;10.938;2023-11-19T10:04:53;60.14;37.67;73.44;;
72160;Laerm;60045;51.792;10.938;2023-11-19T10:07:20;59.13;34.88;71.71;;
72160;Laerm;60045;51.792;10.938;2023-11-19T10:09:46;58.08;34.57;71.46;;
72160;Laerm;60045;51.792;10.938;2023-11-19T10:12:12;62.49;40.74;72.95;;
72160;Laerm;60045;51.792;10.938;2023-11-19T10:14:38;59.02;42.03;72.39;;
72160;Laerm;60045;51.792;10.938;2023-11-19T10:17:07;59.24;36.13;70.53;;
72160;Laerm;60045;51.792;10.938;2023-11-19T10:19:32;60.47;35.91;71.72;;
72160;Laerm;60045;51.792;10.938;2023-11-19T10:22:04;60.19;36.09;74.98;;
72160;Laerm;60045;51.792;10.938;2023-11-19T10:24:33;58.68;37.92;73.12;;
72160;Laerm;60045;51.792;10.938;2023-11-19T10:27:01;56.91;36.01;71.26;;
72160;Laerm;60045;51.792;10.938;2023-11-19T10:29:29;57.70;37.46;70.95;;
72160;Laerm;60045;51.792;10.938;2023-11-19T10:31:58;61.01;36.43;73.09;;
72160;Laerm;60045;51.792;10.938;2023-11-19T10:34:27;61.16;37.36;73.76;;
72160;Laerm;60045;51.792;10.938;2023-11-19T10:36:52;58.81;36.35;73.90;;
72160;Laerm;60045;51.792;10.938;2023-11-19T10:39:18;60.43;37.71;75.53;;
72160;Laerm;60045;51.792;10.938;2023-11-19T10:41:45;61.87;35.10;75.26;;
72160;Laerm;60045;51.792;10.938;2023-11-19T10:44:11;60.71;37.23;75.81;;
72160;Laerm;60045;51.792;10.938;2023-11-19T10:46:37;59.53;37.88;72.49;;
72160;Laerm;60045;51.792;10.938;2023-11-19T10:49:04;61.55;39.71;73.74;;
72160;Laerm;60045;51.792;10.938;2023-11-19T10:51:31;58.62;36.36;70.26;;
72160;Laerm;60045;51.792;10.938;2023-11-19T10:53:58;57.43;35.38;71.85;;
72160;Laerm;60045;51.792;10.938;2023-11-19T10:56:27;62.30;38.67;73.26;;
72160;Laerm;60045;51.792;10.938;2023-11-19T10:58:55;60.46;41.00;72.35;;
72160;Laerm;60045;51.792;10.938;2023-11-19T11:01:24;59.32;38.40;71.58;;
72160;Laerm;60045;51.792;10.938;2023-11-19T11:03:52;60.54;35.74;73.15;;
72160;Laerm;60045;51.792;10.938;2023-11-19T11:06:19;62.16;37.61;75.16;;
72160;Laerm;60045;51.792;10.938;2023-11-19T11:08:46;59.84;35.87;69.96;;
72160;Laerm;60045;51.792;10.938;2023-11-19T11:11:13;61.14;33.85;75.10;;
72160;Laerm;60045;51.792;10.938;2023-11-19T11:13:42;61.37;33.61;72.75;;
72160;Laerm;60045;51.792;10.938;2023-11-19T11:16:08;59.05;35.64;71.51;;
72160;Laerm;60045;51.792;10.938;2023-11-19T11:18:34;59.25;34.68;71.57;;
72160;Laerm;60045;51.792;10.938;2023-11-19T11:21:02;58.69;32.92;74.97;;
72160;Laerm;60045;51.792;10.938;2023-11-19T11:26:24;58.73;33.31;72.58;;
72160;Laerm;60045;51.792;10.938;2023-11-19T11:29:04;57.82;33.62;71.99;;
72160;Laerm;60045;51.792;10.938;2023-11-19T11:31:36;60.38;36.21;75.07;;
72160;Laerm;60045;51.792;10.938;2023-11-19T11:34:24;56.62;36.14;70.13;;
72160;Laerm;60045;51.792;10.938;2023-11-19T11:36:55;61.93;37.57;76.58;;
72160;Laerm;60045;51.792;10.938;2023-11-19T11:39:24;57.62;39.17;73.75;;
72160;Laerm;60045;51.792;10.938;2023-11-19T11:47:21;59.05;35.93;72.37;;
72160;Laerm;60045;51.792;10.938;2023-11-19T11:49:48;57.52;36.26;71.96;;
72160;Laerm;60045;51.792;10.938;2023-11-19T11:52:15;61.02;34.74;72.93;;
72160;Laerm;60045;51.792;10.938;2023-11-19T11:54:41;58.47;36.67;73.47;;
72160;Laerm;60045;51.792;10.938;2023-11-19T11:57:10;57.87;35.46;69.59;;
72160;Laerm;60045;51.792;10.938;2023-11-19T12:02:08;58.76;35.92;71.66;;
72160;Laerm;60045;51.792;10.938;2023-11-19T12:04:34;59.40;36.59;72.76;;
72160;Laerm;60045;51.792;10.938;2023-11-19T12:07:13;63.10;36.85;74.16;;
72160;Laerm;60045;51.792;10.938;2023-11-19T12:09:45;57.35;35.57;69.94;;
72160;Laerm;60045;51.792;10.938;2023-11-19T12:12:19;59.99;39.59;71.36;;
72160;Laerm;60045;51.792;10.938;2023-11-19T12:20:05;62.38;36.46;72.71;;
72160;Laerm;60045;51.792;10.938;2023-11-19T12:22:34;61.90;38.04;73.59;;
72160;Laerm;60045;51.792;10.938;2023-11-19T12:25:00;62.59;37.01;74.57;;
72160;Laerm;60045;51.792;10.938;2023-11-19T12:27:27;59.90;38.13;71.66;;
72160;Laerm;60045;51.792;10.938;2023-11-19T12:29:53;59.68;38.82;72.81;;
72160;Laerm;60045;51.792;10.938;2023-11-19T12:32:19;58.72;40.68;72.10;;
72160;Laerm;60045;51.792;10.938;2023-11-19T12:34:45;62.46;40.96;76.39;;
72160;Laerm;60045;51.792;10.938;2023-11-19T12:37:10;61.37;38.25;70.98;;
72160;Laerm;60045;51.792;10.938;2023-11-19T12:39:36;62.54;36.88;77.36;;
72160;Laerm;60045;51.792;10.938;2023-11-19T12:42:02;60.86;37.85;71.60;;
72160;Laerm;60045;51.792;10.938;2023-11-19T12:44:28;59.80;37.05;72.76;;
72160;Laerm;60045;51.792;10.938;2023-11-19T12:47:04;60.83;36.09;72.19;;
72160;Laerm;60045;51.792;10.938;2023-11-19T12:49:31;61.46;35.71;76.93;;
72160;Laerm;60045;51.792;10.938;2023-11-19T12:51:57;62.70;36.38;71.71;;
72160;Laerm;60045;51.792;10.938;2023-11-19T12:54:35;59.28;36.49;70.51;;
72160;Laerm;60045;51.792;10.938;2023-11-19T12:57:01;57.95;36.60;72.94;;
72160;Laerm;60045;51.792;10.938;2023-11-19T12:59:27;60.07;36.65;72.83;;
72160;Laerm;60045;51.792;10.938;2023-11-19T13:04:22;58.70;37.63;71.65;;
72160;Laerm;60045;51.792;10.938;2023-11-19T13:06:49;56.67;35.34;69.84;;
72160;Laerm;60045;51.792;10.938;2023-11-19T13:09:24;61.16;38.54;73.02;;
72160;Laerm;60045;51.792;10.938;2023-11-19T13:11:50;62.20;43.40;73.07;;
72160;Laerm;60045;51.792;10.938;2023-11-19T13:14:17;59.19;38.63;73.78;;
72160;Laerm;60045;51.792;10.938;2023-11-19T13:16:43;60.71;38.40;73.10;;
72160;Laerm;60045;51.792;10.938;2023-11-19T13:19:11;60.43;37.19;72.42;;
72160;Laerm;60045;51.792;10.938;2023-11-19T13:21:37;60.39;36.32;71.02;;
72160;Laerm;60045;51.792;10.938;2023-11-19T13:24:04;61.20;35.38;73.33;;
72160;Laerm;60045;51.792;10.938;2023-11-19T13:26:30;60.09;37.81;71.70;;
72160;Laerm;60045;51.792;10.938;2023-11-19T13:28:56;58.82;37.74;72.54;;
72160;Laerm;60045;51.792;10.938;2023-11-19T13:31:22;60.99;36.47;73.35;;
72160;Laerm;60045;51.792;10.938;2023-11-19T13:33:48;61.01;37.08;72.54;;
72160;Laerm;60045;51.792;10.938;2023-11-19T13:36:13;61.43;39.68;70.98;;
72160;Laerm;60045;51.792;10.938;2023-11-19T13:38:39;62.26;35.23;72.63;;
72160;Laerm;60045;51.792;10.938;2023-11-19T13:41:07;58.81;34.55;71.93;;
72160;Laerm;60045;51.792;10.938;2023-11-19T13:43:34;59.31;33.55;72.23;;
72160;Laerm;60045;51.792;10.938;2023-11-19T13:46:00;60.22;35.63;73.64;;
72160;Laerm;60045;51.792;10.938;2023-11-19T13:48:25;60.42;36.32;74.10;;